createdAt,value
2017-10-17T00:01:57.040Z,101473.89
2017-10-17T00:04:25.382Z,101472.23
2017-10-17T00:06:53.715Z,101473.98
2017-10-17T00:09:22.450Z,101473.61
2017-10-17T00:11:50.782Z,101476.28
2017-10-17T00:14:19.218Z,101479.34
2017-10-17T00:16:47.573Z,101472.45
2017-10-17T00:19:15.965Z,101476.84
2017-10-17T00:21:44.341Z,101474.30
2017-10-17T00:24:12.670Z,101476.88
2017-10-17T00:26:41.081Z,101470.87
2017-10-17T00:29:09.456Z,101470.09
2017-10-17T00:31:37.730Z,101467.50
2017-10-17T00:34:06.634Z,101467.08
2017-10-17T00:36:34.768Z,101472.26
2017-10-17T00:39:07.157Z,101471.47
2017-10-17T00:41:35.595Z,101465.55
2017-10-17T00:44:03.671Z,101474.18
2017-10-17T00:46:32.344Z,101464.30
2017-10-17T00:49:00.759Z,101462.17
2017-10-17T00:51:29.706Z,101454.45
2017-10-17T00:53:59.330Z,101458.77
2017-10-17T00:56:27.679Z,101459.69
2017-10-17T00:58:55.767Z,101458.44
2017-10-17T01:01:24.203Z,101456.72
2017-10-17T01:03:52.571Z,101459.73
2017-10-17T01:06:20.866Z,101458.02
2017-10-17T01:08:49.257Z,101457.59
2017-10-17T01:11:17.677Z,101464.48
2017-10-17T01:13:46.007Z,101470.99
2017-10-17T01:16:14.400Z,101468.45
2017-10-17T01:18:42.836Z,101472.74
2017-10-17T01:21:12.523Z,101469.74
2017-10-17T01:23:45.419Z,101458.15
2017-10-17T01:26:22.375Z,101463.78
2017-10-17T01:28:57.174Z,101459.53
2017-10-17T01:31:25.568Z,101453.94
2017-10-17T01:33:54.004Z,101454.91
2017-10-17T01:36:22.386Z,101454.11
2017-10-17T01:38:50.481Z,101454.98
2017-10-17T01:41:18.612Z,101450.27
2017-10-17T01:43:46.811Z,101445.98
2017-10-17T01:46:15.831Z,101445.58
2017-10-17T01:48:46.715Z,101441.33
2017-10-17T01:51:16.359Z,101445.33
2017-10-17T01:53:47.267Z,101441.04
2017-10-17T01:56:17.526Z,101440.66
2017-10-17T01:58:45.672Z,101436.41
2017-10-17T02:01:13.823Z,101439.45
2017-10-17T02:03:42.211Z,101433.50
2017-10-17T02:06:10.574Z,101444.34
2017-10-17T02:08:38.713Z,101430.20
2017-10-17T02:11:06.807Z,101430.63
2017-10-17T02:13:35.229Z,101426.34
2017-10-17T02:16:03.688Z,101427.22
2017-10-17T02:18:33.452Z,101420.42
2017-10-17T02:21:13.254Z,101417.05
2017-10-17T02:23:41.341Z,101420.55
2017-10-17T02:26:10.229Z,101419.34
2017-10-17T02:28:42.801Z,101420.27
2017-10-17T02:31:10.971Z,101419.06
2017-10-17T02:33:39.092Z,101411.81
2017-10-17T02:36:07.535Z,101419.19
2017-10-17T02:38:35.990Z,101418.32
2017-10-17T02:41:04.888Z,101416.70
2017-10-17T02:43:35.386Z,101409.03
2017-10-17T02:46:03.767Z,101415.95
2017-10-17T02:48:36.302Z,101415.12
2017-10-17T02:51:04.665Z,101417.79
2017-10-17T02:53:33.071Z,101413.13
2017-10-17T02:56:01.230Z,101423.05
2017-10-17T02:58:29.356Z,101422.27
2017-10-17T03:00:57.502Z,101418.89
2017-10-17T03:03:42.059Z,101418.02
2017-10-17T03:06:10.323Z,101422.03
2017-10-17T03:08:38.661Z,101422.91
2017-10-17T03:11:06.862Z,101423.86
2017-10-17T03:13:38.539Z,101429.91
2017-10-17T03:16:06.965Z,101422.66
2017-10-17T03:18:35.094Z,101426.57
2017-10-17T03:21:21.575Z,101427.11
2017-10-17T03:26:45.845Z,101435.38
2017-10-17T03:29:13.975Z,101438.05
2017-10-17T03:31:42.371Z,101432.09
2017-10-17T03:34:15.179Z,101425.67
2017-10-17T03:36:44.690Z,101435.62
2017-10-17T03:39:12.833Z,101431.75
2017-10-17T03:41:40.924Z,101427.50
2017-10-17T03:47:16.011Z,101433.71
2017-10-17T03:49:45.736Z,101441.50
2017-10-17T03:55:14.006Z,101437.27
2017-10-17T03:57:54.859Z,101431.80
2017-10-17T04:00:23.282Z,101436.55
2017-10-17T04:02:56.133Z,101435.67
2017-10-17T04:08:24.323Z,101433.55
2017-10-17T04:10:56.839Z,101428.89
2017-10-17T04:13:39.840Z,101436.72
2017-10-17T04:19:13.307Z,101431.09
2017-10-17T04:21:45.216Z,101435.89
2017-10-17T04:24:15.015Z,101434.97
2017-10-17T04:26:43.162Z,101441.92
2017-10-17T04:29:19.655Z,101434.59
2017-10-17T04:31:48.663Z,101439.84
2017-10-17T04:34:22.576Z,101435.92
2017-10-17T04:36:57.202Z,101438.05
2017-10-17T04:39:26.006Z,101435.89
2017-10-17T04:51:35.816Z,101448.22
2017-10-17T04:54:15.466Z,101450.77
2017-10-17T04:56:47.228Z,101448.97
2017-10-17T05:02:39.320Z,101447.59
2017-10-17T05:08:26.801Z,101446.21
2017-10-17T05:14:06.894Z,101434.05
2017-10-17T05:16:39.143Z,101438.71
2017-10-17T05:19:34.908Z,101437.84
2017-10-17T05:22:08.295Z,101442.05
2017-10-17T05:27:45.554Z,101433.80
2017-10-17T05:30:20.344Z,101439.42
2017-10-17T05:32:48.486Z,101439.38
2017-10-17T05:35:17.522Z,101436.75
2017-10-17T05:37:45.692Z,101444.05
2017-10-17T05:40:13.784Z,101444.88
2017-10-17T05:42:42.420Z,101441.92
2017-10-17T05:45:13.946Z,101440.17
2017-10-17T05:47:47.434Z,101448.74
2017-10-17T05:50:16.302Z,101452.16
2017-10-17T05:52:46.384Z,101450.87
2017-10-17T05:55:15.061Z,101461.63
2017-10-17T05:57:43.689Z,101456.83
2017-10-17T06:00:12.378Z,101459.83
2017-10-17T06:02:41.060Z,101466.66
2017-10-17T06:05:09.689Z,101467.13
2017-10-17T06:07:38.350Z,101471.00
2017-10-17T06:10:06.974Z,101480.92
2017-10-17T06:12:35.632Z,101474.88
2017-10-17T06:15:04.141Z,101472.33
2017-10-17T06:17:35.247Z,101468.00
2017-10-17T06:20:03.911Z,101468.38
2017-10-17T06:22:32.579Z,101461.95
2017-10-17T06:25:01.070Z,101470.50
2017-10-17T06:27:33.343Z,101472.62
2017-10-17T06:30:01.994Z,101473.04
2017-10-17T06:32:30.617Z,101474.75
2017-10-17T06:34:59.268Z,101480.34
2017-10-17T06:37:28.956Z,101485.96
2017-10-17T06:39:57.620Z,101479.50
2017-10-17T06:42:26.282Z,101485.96
2017-10-17T06:44:54.951Z,101489.05
2017-10-17T06:47:23.650Z,101485.59
2017-10-17T06:49:52.363Z,101487.25
2017-10-17T06:52:20.679Z,101494.13
2017-10-17T06:54:49.371Z,101491.92
2017-10-17T06:57:17.699Z,101491.92
2017-10-17T06:59:46.400Z,101492.34
2017-10-17T07:02:15.046Z,101495.34
2017-10-17T07:04:43.701Z,101491.42
2017-10-17T07:07:12.257Z,101496.51
2017-10-17T07:09:40.894Z,101499.47
2017-10-17T07:12:09.574Z,101502.01
2017-10-17T07:14:38.242Z,101501.58
2017-10-17T07:17:06.851Z,101506.30
2017-10-17T07:19:35.323Z,101505.46
2017-10-17T07:22:03.975Z,101503.30
2017-10-17T07:24:32.487Z,101502.88
2017-10-17T07:27:01.055Z,101507.17
2017-10-17T07:29:29.543Z,101517.09
2017-10-17T07:31:58.191Z,101522.69
2017-10-17T07:34:26.490Z,101522.26
2017-10-17T07:36:55.159Z,101515.80
2017-10-17T07:39:23.799Z,101516.63
2017-10-17T07:41:52.492Z,101515.34
2017-10-17T07:44:21.122Z,101515.34
2017-10-17T07:46:49.506Z,101517.09
2017-10-17T07:49:18.122Z,101516.59
2017-10-17T07:51:46.620Z,101518.34
2017-10-17T07:54:15.156Z,101515.30
2017-10-17T07:56:43.631Z,101514.88
2017-10-17T07:59:12.300Z,101518.34
2017-10-17T08:01:40.796Z,101520.05
2017-10-17T08:04:09.280Z,101517.92
2017-10-17T08:06:37.505Z,101514.38
2017-10-17T08:09:05.679Z,101514.42
2017-10-17T08:11:34.233Z,101513.09
2017-10-17T08:14:02.702Z,101513.88
2017-10-17T08:16:31.366Z,101512.63
2017-10-17T08:19:00.022Z,101511.70
2017-10-17T08:21:28.683Z,101509.91
2017-10-17T08:23:57.294Z,101514.20
2017-10-17T08:26:25.647Z,101508.16
2017-10-17T08:28:54.261Z,101517.63
2017-10-17T08:31:22.928Z,101512.83
2017-10-17T08:33:51.550Z,101517.95
2017-10-17T08:36:20.219Z,101513.75
2017-10-17T08:38:48.755Z,101514.50
2017-10-17T08:41:17.442Z,101511.87
2017-10-17T08:43:46.076Z,101515.33
2017-10-17T08:46:14.755Z,101517.05
2017-10-17T08:48:43.416Z,101516.55
2017-10-17T08:51:12.086Z,101508.78
2017-10-17T08:53:40.582Z,101516.11
2017-10-17T08:56:09.183Z,101516.07
2017-10-17T08:58:37.834Z,101520.37
2017-10-17T09:01:06.351Z,101516.07
2017-10-17T09:03:34.841Z,101510.48
2017-10-17T09:06:03.327Z,101515.61
2017-10-17T09:08:31.988Z,101512.95
2017-10-17T09:11:00.606Z,101514.23
2017-10-17T09:13:29.271Z,101503.02
2017-10-17T09:15:57.891Z,101513.70
2017-10-17T09:18:26.398Z,101516.66
2017-10-17T09:20:54.910Z,101520.45
2017-10-17T09:23:23.423Z,101527.28
2017-10-17T09:25:52.047Z,101522.08
2017-10-17T09:28:20.694Z,101521.58
2017-10-17T09:30:49.320Z,101522.87
2017-10-17T09:33:17.979Z,101522.44
2017-10-17T09:35:46.610Z,101518.52
2017-10-17T09:38:15.241Z,101514.52
2017-10-17T09:40:44.020Z,101515.85
2017-10-17T09:43:12.631Z,101514.02
2017-10-17T09:45:41.287Z,101512.77
2017-10-17T09:48:09.908Z,101522.98
2017-10-17T09:50:38.574Z,101517.77
2017-10-17T09:53:07.188Z,101517.22
2017-10-17T09:55:35.838Z,101507.76
2017-10-17T09:58:04.526Z,101513.72
2017-10-17T10:00:33.173Z,101512.39
2017-10-17T10:03:01.819Z,101517.50
2017-10-17T10:05:30.315Z,101514.42
2017-10-17T10:07:58.615Z,101511.33
2017-10-17T10:10:27.252Z,101517.70
2017-10-17T10:12:55.947Z,101521.13
2017-10-17T10:15:24.579Z,101519.42
2017-10-17T10:17:53.270Z,101513.66
2017-10-17T10:20:21.940Z,101510.57
2017-10-17T10:22:56.822Z,101517.83
2017-10-17T10:25:26.011Z,101516.52
2017-10-17T10:27:54.644Z,101513.81
2017-10-17T10:30:23.261Z,101519.81
2017-10-17T10:32:51.923Z,101513.22
2017-10-17T10:35:20.542Z,101511.88
2017-10-17T10:37:49.227Z,101505.33
2017-10-17T10:40:17.852Z,101512.63
2017-10-17T10:42:46.534Z,101505.66
2017-10-17T10:45:15.157Z,101505.20
2017-10-17T10:47:43.775Z,101510.73
2017-10-17T10:50:12.423Z,101502.44
2017-10-17T10:52:41.066Z,101498.92
2017-10-17T10:55:09.683Z,101501.05
2017-10-17T10:57:38.365Z,101493.20
2017-10-17T11:00:07.027Z,101489.74
2017-10-17T11:02:35.657Z,101486.61
2017-10-17T11:05:04.283Z,101481.02
2017-10-17T11:07:35.803Z,101485.59
2017-10-17T11:10:04.479Z,101481.25
2017-10-17T11:12:33.098Z,101482.13
2017-10-17T11:15:01.756Z,101476.81
2017-10-17T11:17:33.802Z,101475.02
2017-10-17T11:20:02.462Z,101474.52
2017-10-17T11:22:31.089Z,101475.77
2017-10-17T11:24:59.753Z,101470.13
2017-10-17T11:27:33.051Z,101468.38
2017-10-17T11:30:01.578Z,101463.11
2017-10-17T11:32:30.246Z,101461.36
2017-10-17T11:34:58.896Z,101464.31
2017-10-17T11:37:27.575Z,101456.52
2017-10-17T11:39:56.187Z,101456.87
2017-10-17T11:42:35.713Z,101459.83
2017-10-17T11:45:04.386Z,101449.84
2017-10-17T11:47:40.375Z,101455.44
2017-10-17T11:50:08.875Z,101454.11
2017-10-17T11:52:37.499Z,101451.34
2017-10-17T11:55:06.187Z,101453.00
2017-10-17T11:57:36.219Z,101446.44
2017-10-17T12:00:04.948Z,101441.73
2017-10-17T12:02:33.567Z,101438.20
2017-10-17T12:05:02.294Z,101437.28
2017-10-17T12:07:34.846Z,101429.94
2017-10-17T12:10:03.539Z,101427.34
2017-10-17T12:12:32.193Z,101425.08
2017-10-17T12:15:00.731Z,101425.87
2017-10-17T12:20:02.448Z,101434.52
2017-10-17T12:22:31.118Z,101428.37
2017-10-17T12:24:59.869Z,101421.02
2017-10-17T12:27:28.541Z,101424.91
2017-10-17T12:29:57.220Z,101422.22
2017-10-17T12:32:25.897Z,101423.52
2017-10-17T12:34:54.543Z,101420.14
2017-10-17T12:37:23.212Z,101420.00
2017-10-17T12:39:51.885Z,101420.05
2017-10-17T12:42:20.547Z,101422.64
2017-10-17T12:44:49.181Z,101417.41
2017-10-17T12:47:17.843Z,101425.55
2017-10-17T12:49:46.356Z,101425.09
2017-10-17T12:52:15.006Z,101416.89
2017-10-17T12:54:43.627Z,101418.30
2017-10-17T12:57:12.303Z,101420.69
2017-10-17T12:59:40.821Z,101413.29
2017-10-17T13:02:09.350Z,101412.73
2017-10-17T13:04:38.018Z,101408.02
2017-10-17T13:07:06.206Z,101410.20
2017-10-17T13:09:34.836Z,101404.14
2017-10-17T13:12:03.355Z,101400.34
2017-10-17T13:14:31.867Z,101404.92
2017-10-17T13:17:00.398Z,101401.05
2017-10-17T13:19:28.619Z,101400.67
2017-10-17T13:21:57.151Z,101398.45
2017-10-17T13:24:25.779Z,101397.11
2017-10-17T13:26:54.138Z,101401.41
2017-10-17T13:29:22.800Z,101395.03
2017-10-17T13:31:51.488Z,101402.30
2017-10-17T13:34:20.150Z,101400.91
2017-10-17T13:36:48.654Z,101401.45
2017-10-17T13:39:17.311Z,101401.00
2017-10-17T13:41:45.935Z,101390.18
2017-10-17T13:44:14.615Z,101391.06
2017-10-17T13:46:43.226Z,101392.86
2017-10-17T13:49:11.855Z,101396.37
2017-10-17T13:51:40.511Z,101394.71
2017-10-17T13:54:09.150Z,101393.16
2017-10-17T13:56:37.805Z,101388.80
2017-10-17T13:59:09.898Z,101388.42
2017-10-17T14:01:38.563Z,101387.56
2017-10-17T14:04:07.185Z,101380.26
2017-10-17T14:06:35.858Z,101374.62
2017-10-17T14:09:03.856Z,101380.77
2017-10-17T14:11:32.463Z,101384.28
2017-10-17T14:14:01.134Z,101372.95
2017-10-17T14:16:29.766Z,101370.78
2017-10-17T14:18:58.424Z,101365.66
2017-10-17T14:21:27.135Z,101378.17
2017-10-17T14:23:55.606Z,101367.83
2017-10-17T14:26:24.147Z,101371.20
2017-10-17T14:28:52.545Z,101367.78
2017-10-17T14:31:21.212Z,101364.45
2017-10-17T14:33:49.825Z,101354.98
2017-10-17T14:36:18.462Z,101361.49
2017-10-17T14:38:47.146Z,101349.38
2017-10-17T14:41:15.778Z,101348.92
2017-10-17T14:43:44.453Z,101344.16
2017-10-17T14:46:13.057Z,101340.33
2017-10-17T14:48:41.671Z,101346.94
2017-10-17T14:51:10.322Z,101343.09
2017-10-17T14:53:38.942Z,101333.53
2017-10-17T14:56:07.604Z,101338.80
2017-10-17T14:58:36.226Z,101349.61
2017-10-17T15:01:04.903Z,101343.70
2017-10-17T15:03:33.536Z,101341.17
2017-10-17T15:06:02.208Z,101347.69
2017-10-17T15:08:30.892Z,101345.28
2017-10-17T15:10:59.365Z,101349.17
2017-10-17T15:13:27.918Z,101347.09
2017-10-17T15:15:56.384Z,101332.16
2017-10-17T15:18:25.032Z,101335.26
2017-10-17T15:20:53.693Z,101333.19
2017-10-17T15:23:22.332Z,101328.53
2017-10-17T15:25:51.011Z,101332.04
2017-10-17T15:28:19.642Z,101328.39
2017-10-17T15:30:48.297Z,101328.89
2017-10-17T15:33:16.911Z,101322.94
2017-10-17T15:35:45.523Z,101319.20
2017-10-17T15:38:14.191Z,101324.93
2017-10-17T15:40:42.815Z,101320.45
2017-10-17T15:43:11.502Z,101319.98
2017-10-17T15:45:40.124Z,101320.08
2017-10-17T15:48:08.807Z,101312.05
2017-10-17T15:50:37.496Z,101309.23
2017-10-17T15:53:06.116Z,101313.98
2017-10-17T15:55:34.775Z,101310.29
2017-10-17T15:58:03.409Z,101304.80
2017-10-17T16:00:32.107Z,101298.84
2017-10-17T16:03:00.728Z,101291.55
2017-10-17T16:05:29.344Z,101297.60
2017-10-17T16:07:58.004Z,101292.10
2017-10-17T16:10:26.613Z,101290.62
2017-10-17T16:12:55.268Z,101292.47
2017-10-17T16:15:23.926Z,101293.80
2017-10-17T16:17:52.599Z,101297.33
2017-10-17T16:20:21.304Z,101300.13
2017-10-17T16:22:49.915Z,101300.59
2017-10-17T16:25:18.580Z,101297.31
2017-10-17T16:27:47.226Z,101299.57
2017-10-17T16:30:15.902Z,101293.25
2017-10-17T16:32:44.534Z,101291.09
2017-10-17T16:35:13.195Z,101289.64
2017-10-17T16:37:41.671Z,101287.43
2017-10-17T16:40:10.295Z,101287.70
2017-10-17T16:42:38.961Z,101285.99
2017-10-17T16:45:07.572Z,101285.27
2017-10-17T16:47:39.087Z,101290.43
2017-10-17T16:50:07.567Z,101287.98
2017-10-17T16:52:36.243Z,101283.36
2017-10-17T16:55:04.935Z,101289.55
2017-10-17T16:57:36.885Z,101283.97
2017-10-17T17:00:05.403Z,101275.89
2017-10-17T17:02:34.066Z,101271.23
2017-10-17T17:05:02.559Z,101273.86
2017-10-17T17:07:31.042Z,101281.28
2017-10-17T17:09:59.586Z,101279.62
2017-10-17T17:12:28.211Z,101278.41
2017-10-17T17:14:56.871Z,101275.50
2017-10-17T17:17:25.483Z,101270.47
2017-10-17T17:19:54.098Z,101270.94
2017-10-17T17:22:22.799Z,101272.86
2017-10-17T17:24:51.470Z,101272.13
2017-10-17T17:27:20.094Z,101267.41
2017-10-17T17:29:48.564Z,101264.92
2017-10-17T17:32:17.215Z,101265.42
2017-10-17T17:35:02.306Z,101271.66
2017-10-17T17:37:31.945Z,101270.41
2017-10-17T17:40:00.557Z,101270.98
2017-10-17T17:42:29.218Z,101278.78
2017-10-17T17:44:57.829Z,101286.58
2017-10-17T17:47:26.453Z,101291.87
2017-10-17T17:49:54.794Z,101284.58
2017-10-17T17:52:23.468Z,101277.39
2017-10-17T17:54:52.112Z,101276.56
2017-10-17T17:57:20.768Z,101282.31
2017-10-17T17:59:49.412Z,101275.85
2017-10-17T18:02:18.094Z,101283.69
2017-10-17T18:04:46.712Z,101275.23
2017-10-17T18:07:15.367Z,101279.58
2017-10-17T18:09:43.986Z,101278.75
2017-10-17T18:12:12.637Z,101284.37
2017-10-17T18:14:41.123Z,101288.33
2017-10-17T18:17:09.640Z,101288.83
2017-10-17T18:19:38.270Z,101274.71
2017-10-17T18:22:06.946Z,101276.92
2017-10-17T18:24:35.581Z,101283.05
2017-10-17T18:27:04.238Z,101284.37
2017-10-17T18:29:32.862Z,101288.70
2017-10-17T18:32:01.527Z,101279.30
2017-10-17T18:34:30.150Z,101279.35
2017-10-17T18:36:58.759Z,101274.19
2017-10-17T18:39:27.432Z,101277.27
2017-10-17T18:41:56.053Z,101275.19
2017-10-17T18:44:24.710Z,101271.36
2017-10-17T18:46:53.323Z,101275.77
2017-10-17T18:49:21.974Z,101276.27
2017-10-17T18:51:50.596Z,101285.02
2017-10-17T18:54:19.249Z,101293.65
2017-10-17T18:56:47.742Z,101288.95
2017-10-17T18:59:16.279Z,101283.37
2017-10-17T19:01:44.803Z,101285.62
2017-10-17T19:04:13.475Z,101296.81
2017-10-17T19:06:42.095Z,101301.19
2017-10-17T19:09:10.773Z,101302.98
2017-10-17T19:11:39.395Z,101307.30
2017-10-17T19:14:08.063Z,101304.80
2017-10-17T19:16:36.679Z,101297.61
2017-10-17T19:19:05.311Z,101296.81
2017-10-17T19:21:33.975Z,101302.44
2017-10-17T19:24:02.594Z,101306.31
2017-10-17T19:26:31.266Z,101302.98
2017-10-17T19:28:59.895Z,101298.32
2017-10-17T19:31:28.564Z,101291.03
2017-10-17T19:33:57.235Z,101295.45
2017-10-17T19:36:25.864Z,101298.48
2017-10-17T19:38:54.403Z,101303.27
2017-10-17T19:41:23.134Z,101294.28
2017-10-17T19:43:52.161Z,101297.41
2017-10-17T19:46:20.773Z,101307.81
2017-10-17T19:48:49.389Z,101317.34
2017-10-17T19:51:18.055Z,101312.68
2017-10-17T19:53:46.673Z,101307.89
2017-10-17T19:56:15.343Z,101309.72
2017-10-17T19:58:44.023Z,101313.22
2017-10-17T20:01:12.695Z,101310.68
2017-10-17T20:03:41.307Z,101309.09
2017-10-17T20:06:09.921Z,101316.42
2017-10-17T20:08:38.575Z,101319.01
2017-10-17T20:11:07.215Z,101327.24
2017-10-17T20:13:35.878Z,101329.41
2017-10-17T20:16:04.553Z,101318.71
2017-10-17T20:18:33.216Z,101317.05
2017-10-17T20:21:01.930Z,101310.30
2017-10-17T20:23:30.558Z,101312.50
2017-10-17T20:25:59.234Z,101319.03
2017-10-17T20:28:27.716Z,101328.94
2017-10-17T20:30:56.227Z,101322.56
2017-10-17T20:33:24.721Z,101315.25
2017-10-17T20:35:52.908Z,101311.87
2017-10-17T20:38:21.573Z,101298.27
2017-10-17T20:40:50.197Z,101306.47
2017-10-17T20:43:18.875Z,101315.12
2017-10-17T20:45:47.495Z,101314.70
2017-10-17T20:48:16.106Z,101318.16
2017-10-17T20:50:44.778Z,101313.98
2017-10-17T20:53:13.435Z,101315.70
2017-10-17T20:55:42.057Z,101313.98
2017-10-17T20:58:10.570Z,101319.23
2017-10-17T21:00:39.222Z,101318.39
2017-10-17T21:03:07.754Z,101318.81
2017-10-17T21:05:36.384Z,101301.61
2017-10-17T21:08:05.080Z,101298.65
2017-10-17T21:10:35.442Z,101303.51
2017-10-17T21:13:04.665Z,101302.67
2017-10-17T21:15:33.320Z,101298.02
2017-10-17T21:18:01.943Z,101289.98
2017-10-17T21:20:30.609Z,101289.11
2017-10-17T21:22:59.223Z,101301.13
2017-10-17T21:25:27.891Z,101295.18
2017-10-17T21:27:56.516Z,101293.09
2017-10-17T21:30:25.201Z,101295.69
2017-10-17T21:32:53.852Z,101295.30
2017-10-17T21:35:22.515Z,101297.59
2017-10-17T21:37:51.161Z,101293.26
2017-10-17T21:40:19.782Z,101292.47
2017-10-17T21:42:48.447Z,101292.50
2017-10-17T21:45:17.054Z,101292.59
2017-10-17T21:47:45.719Z,101290.96
2017-10-17T21:50:14.335Z,101288.05
2017-10-17T21:52:43.015Z,101285.93
2017-10-17T21:55:11.646Z,101277.40
2017-10-17T21:57:40.249Z,101274.86
2017-10-17T22:00:08.931Z,101270.62
2017-10-17T22:02:37.401Z,101269.45
2017-10-17T22:05:06.068Z,101260.96
2017-10-17T22:07:38.027Z,101272.11
2017-10-17T22:10:06.705Z,101267.11
2017-10-17T22:12:35.323Z,101263.70
2017-10-17T22:15:03.989Z,101267.65
2017-10-17T22:17:35.743Z,101258.74
2017-10-17T22:20:04.374Z,101258.83
2017-10-17T22:22:33.052Z,101260.15
2017-10-17T22:25:01.677Z,101254.70
2017-10-17T22:27:30.362Z,101247.88
2017-10-17T22:29:58.990Z,101247.51
2017-10-17T22:32:27.627Z,101246.75
2017-10-17T22:34:56.310Z,101251.11
2017-10-17T22:37:24.929Z,101245.20
2017-10-17T22:39:53.583Z,101242.66
2017-10-17T22:42:22.194Z,101238.92
2017-10-17T22:44:50.866Z,101232.93
2017-10-17T22:47:19.483Z,101235.14
2017-10-17T22:49:47.970Z,101234.38
2017-10-17T22:52:16.635Z,101229.72
2017-10-17T22:54:45.266Z,101232.80
2017-10-17T22:57:13.892Z,101233.33
2017-10-17T22:59:42.546Z,101239.35
2017-10-17T23:02:11.209Z,101231.25
2017-10-17T23:04:39.877Z,101225.75
2017-10-17T23:07:08.342Z,101227.50
2017-10-17T23:09:37.000Z,101238.27
2017-10-17T23:12:05.651Z,101243.03
2017-10-17T23:14:34.300Z,101243.11
2017-10-17T23:17:14.092Z,101237.63
2017-10-17T23:19:53.947Z,101229.48
2017-10-17T23:22:37.923Z,101229.09
2017-10-17T23:25:06.611Z,101235.62
2017-10-17T23:27:38.050Z,101231.38
2017-10-17T23:30:06.756Z,101223.27
2017-10-17T23:32:35.379Z,101219.87
2017-10-17T23:35:04.037Z,101221.61
2017-10-17T23:37:36.337Z,101216.53
2017-10-17T23:40:04.854Z,101223.50
2017-10-17T23:42:33.327Z,101219.23
2017-10-17T23:45:01.993Z,101223.20
2017-10-17T23:47:30.630Z,101221.91
2017-10-17T23:49:59.304Z,101229.27
2017-10-17T23:52:27.914Z,101225.89
2017-10-17T23:54:56.563Z,101222.07
2017-10-17T23:57:25.224Z,101217.83
2017-10-17T23:59:53.851Z,101231.16
